Time;durP1;ratioP1;P1;durP2;ratioP2;P2;SDS_P1;SDS_P2;PMS_P1;PMS_P2;Temp;Humidity;BMP_temperature;BMP_pressure;BME280_temperature;BME280_humidity;BME280_pressure;Samples;Min_cycle;Max_cycle;Signal;HPM_P1;HPM_P2
2021/01/09 00:00:23;;;;;;;21.63;14.57;;;;;;;2.25;69.26;102300.81;5043913;28;20029;-79
2021/01/09 00:02:50;;;;;;;27.70;15.00;;;;;;;2.27;69.34;102303.53;5045280;28;20369;-79
2021/01/09 00:05:16;;;;;;;28.73;17.48;;;;;;;2.34;69.21;102297.66;5043614;28;20511;-80
2021/01/09 00:07:42;;;;;;;28.55;16.85;;;;;;;2.37;68.97;102305.63;5042141;28;20098;-80
2021/01/09 00:10:10;;;;;;;28.73;16.00;;;;;;;2.36;69.07;102302.97;5043873;28;20025;-79
2021/01/09 00:12:37;;;;;;;31.08;15.25;;;;;;;2.35;68.91;102307.28;5044605;28;20060;-79
2021/01/09 00:15:06;;;;;;;22.92;14.48;;;;;;;2.35;68.70;102309.03;5043690;28;20049;-79
2021/01/09 00:17:32;;;;;;;27.88;15.48;;;;;;;2.33;69.09;102308.97;5043216;28;20025;-80
2021/01/09 00:19:59;;;;;;;26.00;16.38;;;;;;;2.33;69.12;102306.38;5052259;22;20063;-81
2021/01/09 00:22:26;;;;;;;21.75;12.85;;;;;;;2.35;69.50;102312.53;5044433;28;20029;-79
2021/01/09 00:24:52;;;;;;;27.48;13.63;;;;;;;2.39;69.47;102310.91;5045506;28;20041;-83
2021/01/09 00:27:19;;;;;;;31.02;14.82;;;;;;;2.40;69.03;102310.09;5044143;28;20027;-81
2021/01/09 00:29:45;;;;;;;21.35;13.40;;;;;;;2.36;69.21;102305.59;5044890;28;20037;-80
2021/01/09 00:32:12;;;;;;;18.60;12.07;;;;;;;2.34;69.05;102317.72;5042560;28;20021;-82
2021/01/09 00:34:39;;;;;;;20.98;12.98;;;;;;;2.29;68.71;102311.41;5043062;28;20033;-81
2021/01/09 00:37:05;;;;;;;18.20;12.55;;;;;;;2.25;68.67;102313.03;5042733;28;20026;-81
2021/01/09 00:39:32;;;;;;;24.98;14.43;;;;;;;2.20;68.58;102310.22;5044096;28;20075;-81
2021/01/09 00:42:00;;;;;;;24.27;12.85;;;;;;;2.18;68.32;102314.53;5045921;28;20036;-81
2021/01/09 00:44:30;;;;;;;17.05;12.15;;;;;;;2.17;68.43;102312.75;5042527;28;20029;-89
2021/01/09 00:46:57;;;;;;;21.83;12.55;;;;;;;2.12;68.30;102319.53;5042651;28;20033;-79
2021/01/09 00:49:24;;;;;;;19.70;11.65;;;;;;;2.11;68.18;102322.97;5041700;28;20044;-81
2021/01/09 00:51:51;;;;;;;19.88;13.32;;;;;;;2.09;68.18;102319.38;5042611;28;20037;-81
2021/01/09 00:54:18;;;;;;;18.63;11.77;;;;;;;2.07;67.74;102321.06;5040976;28;20037;-80
2021/01/09 00:56:44;;;;;;;26.00;13.82;;;;;;;2.04;68.05;102321.81;5033543;28;20030;-80
2021/01/09 00:59:11;;;;;;;20.20;12.40;;;;;;;2.02;68.17;102320.88;5033490;28;20021;-81
2021/01/09 01:01:37;;;;;;;19.90;13.20;;;;;;;2.02;68.17;102325.19;5034034;28;20036;-79
2021/01/09 01:04:04;;;;;;;29.88;15.00;;;;;;;2.02;67.94;102335.66;5033606;28;20041;-81
2021/01/09 01:06:30;;;;;;;19.98;12.73;;;;;;;1.99;68.08;102325.97;5033620;28;20026;-81
2021/01/09 01:08:56;;;;;;;25.30;13.82;;;;;;;1.99;67.89;102330.31;5033411;28;20522;-79
2021/01/09 01:11:28;;;;;;;25.23;12.73;;;;;;;2.01;67.94;102331.28;5033694;28;20385;-79
2021/01/09 01:13:55;;;;;;;19.97;13.23;;;;;;;1.97;67.94;102324.13;5033210;28;20033;-81
2021/01/09 01:16:23;;;;;;;33.50;16.48;;;;;;;1.94;68.09;102330.13;5035878;28;20355;-80
2021/01/09 01:18:50;;;;;;;25.23;15.35;;;;;;;1.95;68.04;102337.16;5033633;28;20108;-80
2021/01/09 01:21:17;;;;;;;23.55;14.30;;;;;;;1.94;68.19;102335.34;5037299;28;20119;-81
2021/01/09 01:23:44;;;;;;;22.10;12.80;;;;;;;1.94;68.03;102341.50;5041845;28;20037;-81
2021/01/09 01:26:12;;;;;;;18.33;12.38;;;;;;;1.94;68.16;102338.88;5040650;28;20079;-80
2021/01/09 01:28:39;;;;;;;17.73;11.73;;;;;;;1.91;68.19;102341.38;5042670;28;20025;-80
2021/01/09 01:31:07;;;;;;;20.77;13.48;;;;;;;1.88;68.16;102343.88;5043828;28;20029;-80
2021/01/09 01:33:34;;;;;;;23.33;14.32;;;;;;;1.86;68.11;102342.03;5042521;28;20072;-79
2021/01/09 01:36:00;;;;;;;18.80;11.43;;;;;;;1.86;68.02;102350.75;5042292;28;20411;-79
2021/01/09 01:38:27;;;;;;;19.40;12.55;;;;;;;1.87;68.17;102338.56;5042429;28;20017;-81
2021/01/09 01:41:02;;;;;;;16.90;11.27;;;;;;;1.93;68.04;102358.00;5042134;28;20030;-79
2021/01/09 01:43:29;;;;;;;24.13;12.85;;;;;;;1.88;68.24;102354.31;5041507;28;20029;-80
2021/01/09 01:45:57;;;;;;;15.25;10.85;;;;;;;1.87;68.31;102356.84;5042922;28;20029;-79
2021/01/09 01:48:24;;;;;;;22.08;12.40;;;;;;;1.87;68.12;102364.69;5044340;28;20112;-79
2021/01/09 01:50:50;;;;;;;16.75;11.18;;;;;;;1.86;68.08;102362.94;5042638;28;20037;-79
2021/01/09 01:53:17;;;;;;;24.15;14.23;;;;;;;1.85;68.10;102372.47;5042347;28;20354;-80
2021/01/09 01:55:44;;;;;;;18.67;12.48;;;;;;;1.84;67.91;102375.91;5041977;28;20034;-78
2021/01/09 01:58:12;;;;;;;22.63;14.63;;;;;;;1.83;68.02;102371.50;5041922;28;20030;-80
2021/01/09 02:00:45;;;;;;;22.33;13.35;;;;;;;1.82;68.25;102376.69;5042370;28;20017;-80
2021/01/09 02:03:12;;;;;;;21.38;12.93;;;;;;;1.82;68.43;102372.38;5041577;28;20457;-81
2021/01/09 02:05:46;;;;;;;21.58;12.98;;;;;;;1.84;68.28;102375.91;5044481;28;20082;-82
2021/01/09 02:08:14;;;;;;;22.80;12.90;;;;;;;1.83;68.29;102378.47;5045811;28;20029;-79
2021/01/09 02:10:46;;;;;;;16.52;11.15;;;;;;;1.85;68.34;102382.94;5046060;28;20029;-79
2021/01/09 02:13:23;;;;;;;21.23;11.93;;;;;;;1.91;68.31;102372.72;5045589;28;20036;-79
2021/01/09 02:15:51;;;;;;;19.98;12.48;;;;;;;1.84;68.40;102378.53;5044423;28;20678;-80
2021/01/09 02:18:19;;;;;;;21.98;12.63;;;;;;;1.86;68.82;102374.28;5036827;28;20087;-80
2021/01/09 02:20:49;;;;;;;18.48;11.07;;;;;;;1.86;68.60;102376.88;5036767;28;20396;-80
2021/01/09 02:23:16;;;;;;;18.75;10.55;;;;;;;1.83;68.45;102378.47;5049163;28;20036;-80
2021/01/09 02:25:42;;;;;;;18.15;11.07;;;;;;;1.81;68.55;102377.50;5056437;28;20025;-79
2021/01/09 02:28:09;;;;;;;17.25;10.30;;;;;;;1.79;68.33;102382.69;5056381;28;20041;-80
2021/01/09 02:30:40;;;;;;;17.75;11.02;;;;;;;1.80;68.16;102384.47;5056553;28;20029;-78
2021/01/09 02:33:11;;;;;;;17.30;9.73;;;;;;;1.80;68.90;102381.84;5056497;28;20035;-80
2021/01/09 02:35:39;;;;;;;19.30;10.85;;;;;;;1.89;69.18;102374.38;5056120;28;20029;-79
2021/01/09 02:38:07;;;;;;;17.13;9.10;;;;;;;1.97;69.30;102386.88;5055876;28;20029;-80
2021/01/09 02:40:41;;;;;;;15.38;9.82;;;;;;;2.04;69.19;102384.56;5056273;28;20029;-80
2021/01/09 02:43:15;;;;;;;14.25;9.07;;;;;;;2.07;69.01;102391.66;5056142;28;20124;-80
2021/01/09 02:45:41;;;;;;;13.35;8.73;;;;;;;2.01;68.75;102388.81;5056033;28;20060;-80
2021/01/09 02:48:09;;;;;;;17.05;10.00;;;;;;;2.01;68.63;102394.03;5056137;28;20021;-79
2021/01/09 02:50:35;;;;;;;17.30;9.30;;;;;;;2.01;68.75;102391.41;5055913;28;20025;-79
2021/01/09 02:53:01;;;;;;;15.88;8.80;;;;;;;2.02;68.99;102391.47;5055883;28;20128;-79
2021/01/09 02:55:28;;;;;;;13.57;8.13;;;;;;;2.09;69.09;102389.97;5056220;28;20021;-79
2021/01/09 02:57:54;;;;;;;13.52;7.55;;;;;;;2.13;69.11;102389.28;5055841;28;20590;-79
2021/01/09 03:00:21;;;;;;;14.13;7.88;;;;;;;2.12;69.50;102392.72;5055740;28;20422;-81
2021/01/09 03:02:48;;;;;;;14.57;8.63;;;;;;;2.15;69.01;102391.97;5055716;28;20491;-80
2021/01/09 03:05:14;;;;;;;13.55;7.93;;;;;;;2.12;69.04;102397.06;5055808;28;20037;-80
2021/01/09 03:07:41;;;;;;;16.15;8.15;;;;;;;2.10;68.99;102389.16;5055715;28;20029;-81
2021/01/09 03:10:07;;;;;;;12.60;7.00;;;;;;;2.09;69.28;102392.59;5055723;28;20039;-81
2021/01/09 03:12:34;;;;;;;12.60;7.75;;;;;;;2.10;69.25;102395.25;5055857;28;20461;-79
2021/01/09 03:15:00;;;;;;;10.75;6.35;;;;;;;2.07;69.14;102395.16;5055699;28;20025;-79
2021/01/09 03:17:27;;;;;;;11.00;6.65;;;;;;;2.06;69.24;102395.97;5055178;28;20065;-79
2021/01/09 03:19:53;;;;;;;11.68;6.75;;;;;;;2.06;69.02;102403.81;5055187;28;20388;-79
2021/01/09 03:22:20;;;;;;;12.35;6.85;;;;;;;2.05;68.94;102401.16;5055684;28;20031;-79
2021/01/09 03:24:46;;;;;;;11.35;5.55;;;;;;;2.06;68.91;102403.81;5055273;28;20563;-80
2021/01/09 03:27:12;;;;;;;13.45;6.78;;;;;;;2.07;69.27;102399.50;5055579;28;20039;-79
2021/01/09 03:29:39;;;;;;;14.50;6.22;;;;;;;2.10;69.34;102400.50;5055418;28;20028;-79
2021/01/09 03:32:05;;;;;;;13.02;5.70;;;;;;;2.12;69.49;102397.97;5055511;28;20515;-79
2021/01/09 03:34:32;;;;;;;7.93;5.10;;;;;;;2.12;69.50;102397.97;5055307;28;20044;-78
2021/01/09 03:36:58;;;;;;;9.63;5.93;;;;;;;2.11;69.43;102398.78;5055120;28;20060;-80
2021/01/09 03:39:24;;;;;;;15.52;6.25;;;;;;;2.12;69.30;102400.56;5055323;28;20086;-81
2021/01/09 03:41:51;;;;;;;7.82;5.22;;;;;;;2.09;69.50;102396.13;5055307;28;20116;-79
2021/01/09 03:44:17;;;;;;;12.73;5.72;;;;;;;2.08;69.23;102406.50;5055307;28;20044;-79
2021/01/09 03:46:44;;;;;;;10.75;5.18;;;;;;;2.06;69.34;102403.81;5055306;28;20057;-80
2021/01/09 03:51:50;;;;;;;10.32;4.93;;;;;;;2.11;69.21;102401.41;5029504;28;20049;-91
2021/01/09 03:54:23;;;;;;;12.23;5.05;;;;;;;2.06;69.09;102402.94;5025795;28;20041;-91
2021/01/09 03:56:52;;;;;;;11.88;5.35;;;;;;;2.05;68.88;102407.25;5007911;28;20054;-92
2021/01/09 03:59:19;;;;;;;10.75;4.72;;;;;;;2.01;68.74;102404.50;4996752;28;20027;-92
2021/01/09 04:01:51;;;;;;;7.25;4.68;;;;;;;2.00;68.63;102408.81;4996157;28;20046;-93
2021/01/09 04:04:24;;;;;;;11.38;5.28;;;;;;;1.97;68.70;102413.00;4996435;28;20384;-92
2021/01/09 04:07:11;;;;;;;9.73;5.78;;;;;;;1.94;68.60;102404.25;4997116;28;20030;-92
2021/01/09 04:09:37;;;;;;;8.85;4.78;;;;;;;1.93;68.73;102405.06;4996386;28;20470;-92
2021/01/09 04:12:06;;;;;;;6.40;4.38;;;;;;;1.89;68.58;102403.13;4996979;28;20027;-92
2021/01/09 04:14:53;;;;;;;11.57;4.68;;;;;;;1.97;68.71;102399.94;4999339;28;20034;-92
2021/01/09 04:17:22;;;;;;;9.43;4.47;;;;;;;1.85;68.34;102398.63;5009937;28;20042;-93
2021/01/09 04:19:51;;;;;;;6.53;3.90;;;;;;;1.81;68.30;102403.66;5017873;28;20112;-91
2021/01/09 04:22:20;;;;;;;9.35;4.95;;;;;;;1.80;68.21;102400.16;5000678;28;20121;-92
2021/01/09 04:24:55;;;;;;;6.93;4.40;;;;;;;1.75;68.17;102407.78;4999915;28;20022;-93
2021/01/09 04:27:44;;;;;;;9.23;4.82;;;;;;;1.75;67.98;102406.91;4996663;28;20034;-92
2021/01/09 04:30:15;;;;;;;6.30;4.28;;;;;;;1.65;68.05;102409.97;5001259;28;20062;-93
2021/01/09 04:32:41;;;;;;;6.95;3.78;;;;;;;1.56;68.07;102413.97;5015306;28;20052;-92
2021/01/09 04:35:11;;;;;;;9.38;4.88;;;;;;;1.52;67.98;102409.47;4999758;28;20466;-92
2021/01/09 04:37:38;;;;;;;7.15;4.47;;;;;;;1.49;67.75;102409.31;4995470;28;20536;-91
2021/01/09 04:40:10;;;;;;;8.35;5.03;;;;;;;1.48;67.73;102411.88;4995238;28;20030;-92
2021/01/09 04:42:42;;;;;;;6.35;4.13;;;;;;;1.44;68.00;102426.50;4995478;28;20481;-92
2021/01/09 04:45:17;;;;;;;7.05;4.35;;;;;;;1.47;68.00;102423.13;4995051;28;20022;-92
2021/01/09 04:47:50;;;;;;;9.60;4.93;;;;;;;1.42;68.09;102422.94;4995287;28;20466;-92
2021/01/09 04:50:23;;;;;;;7.57;4.70;;;;;;;1.40;68.03;102429.81;4997325;28;20026;-92
2021/01/09 04:52:55;;;;;;;9.52;4.80;;;;;;;1.36;68.14;102422.66;5009995;28;20117;-91
2021/01/09 04:55:22;;;;;;;9.80;4.55;;;;;;;1.36;68.25;102431.41;5014635;28;20033;-92
2021/01/09 04:57:54;;;;;;;7.00;4.38;;;;;;;1.38;68.03;102431.47;5008338;28;20061;-92
2021/01/09 05:00:23;;;;;;;9.80;5.30;;;;;;;1.34;68.10;102432.19;4994723;28;20109;-92
2021/01/09 05:02:53;;;;;;;7.65;4.70;;;;;;;1.31;67.74;102430.31;4995889;28;20044;-91
2021/01/09 05:05:22;;;;;;;13.65;5.32;;;;;;;1.31;68.13;102434.63;4995483;28;20395;-92
2021/01/09 05:07:50;;;;;;;8.35;4.53;;;;;;;1.29;68.48;102438.06;4999489;28;20030;-92
2021/01/09 05:10:17;;;;;;;7.60;4.18;;;;;;;1.28;68.16;102441.53;5003045;28;20121;-92
2021/01/09 05:12:47;;;;;;;11.77;4.53;;;;;;;1.28;67.92;102438.91;5010051;28;20034;-93
2021/01/09 05:15:15;;;;;;;13.63;5.20;;;;;;;1.25;67.82;102446.59;5005778;28;20030;-93
2021/01/09 05:18:05;;;;;;;12.68;5.50;;;;;;;1.24;67.75;102447.41;4996812;28;20374;-93
2021/01/09 05:20:38;;;;;;;7.13;4.32;;;;;;;1.21;67.87;102452.53;5012747;28;20080;-91
2021/01/09 05:23:07;;;;;;;8.55;5.05;;;;;;;1.21;68.08;102454.22;5013374;28;20034;-92
2021/01/09 05:25:39;;;;;;;6.60;4.20;;;;;;;1.17;67.52;102452.31;5013989;28;20425;-93
2021/01/09 05:28:09;;;;;;;10.43;5.15;;;;;;;1.18;67.73;102460.19;5014090;28;20026;-93
2021/01/09 05:30:35;;;;;;;8.15;5.18;;;;;;;1.11;67.90;102459.03;5012996;28;20018;-92
2021/01/09 05:33:01;;;;;;;8.00;4.97;;;;;;;1.09;67.38;102465.91;5012291;28;20026;-92
2021/01/09 05:35:30;;;;;;;7.85;4.45;;;;;;;1.09;67.87;102459.81;5000109;28;20031;-93
2021/01/09 05:37:56;;;;;;;6.75;4.30;;;;;;;1.04;67.28;102461.31;4994530;28;20126;-94
2021/01/09 05:40:23;;;;;;;9.88;5.20;;;;;;;1.01;67.79;102461.16;5010808;28;20057;-95
2021/01/09 05:42:58;;;;;;;10.10;5.05;;;;;;;0.99;67.62;102465.44;5018458;28;20124;-94
2021/01/09 05:45:25;;;;;;;6.60;5.05;;;;;;;1.00;67.89;102475.03;5018607;28;20404;-93
2021/01/09 05:47:55;;;;;;;7.70;4.75;;;;;;;1.01;67.83;102469.00;5018971;28;20076;-94
2021/01/09 05:50:22;;;;;;;12.52;5.68;;;;;;;0.94;67.62;102471.31;5018098;28;20064;-92
2021/01/09 05:52:48;;;;;;;11.15;6.57;;;;;;;0.91;67.68;102465.97;5017970;28;20045;-94
2021/01/09 05:55:14;;;;;;;12.60;6.00;;;;;;;0.91;67.97;102471.19;5018355;28;20068;-93
2021/01/09 05:57:44;;;;;;;12.48;6.43;;;;;;;0.96;67.74;102480.13;5006630;28;20036;-95
2021/01/09 06:00:12;;;;;;;7.88;5.30;;;;;;;0.90;67.82;102476.34;4998623;28;20030;-94
2021/01/09 06:02:55;;;;;;;9.38;5.80;;;;;;;0.96;67.74;102479.25;4998074;28;20030;-95
2021/01/09 06:05:22;;;;;;;10.80;5.38;;;;;;;0.89;67.52;102482.38;4998279;28;20076;-93
2021/01/09 06:07:51;;;;;;;10.48;5.43;;;;;;;0.89;67.56;102478.06;5007833;28;20049;-92
2021/01/09 06:10:21;;;;;;;8.27;6.00;;;;;;;0.90;67.73;102487.66;5020706;28;20033;-93
2021/01/09 06:12:59;;;;;;;10.30;5.95;;;;;;;0.93;67.56;102490.41;5016396;28;20029;-92
2021/01/09 06:15:31;;;;;;;10.32;6.60;;;;;;;0.88;67.53;102484.09;5000472;28;20058;-93
2021/01/09 06:17:59;;;;;;;12.25;6.57;;;;;;;0.88;67.88;102496.25;4998202;28;20034;-92
2021/01/09 06:20:26;;;;;;;11.93;6.50;;;;;;;0.86;67.55;102487.44;5008481;28;20034;-92
2021/01/09 06:22:54;;;;;;;11.15;6.38;;;;;;;0.86;67.86;102493.59;4998075;28;20057;-94
2021/01/09 06:25:21;;;;;;;11.43;6.38;;;;;;;0.85;67.55;102497.00;4998074;28;20061;-93
2021/01/09 06:27:52;;;;;;;12.43;7.25;;;;;;;0.85;67.68;102497.00;5005735;28;20034;-96
2021/01/09 06:30:20;;;;;;;10.50;6.38;;;;;;;0.84;67.51;102500.44;5005582;28;20062;-95
2021/01/09 06:32:56;;;;;;;12.18;7.60;;;;;;;0.88;67.38;102497.13;5009792;28;20026;-95
2021/01/09 06:35:22;;;;;;;13.90;7.15;;;;;;;0.80;67.31;102488.94;5005912;28;20121;-96
2021/01/09 06:37:54;;;;;;;10.98;7.00;;;;;;;0.81;67.34;102492.47;4998379;28;20096;-96
2021/01/09 06:40:27;;;;;;;8.55;5.95;;;;;;;0.82;67.77;102493.34;4996676;28;20379;-95
2021/01/09 06:42:54;;;;;;;;;;;;;;;0.99;67.37;102494.16;4997528;28;20517;-95
2021/01/09 06:45:21;;;;;;;8.75;5.72;;;;;;;0.79;67.52;102494.09;4998090;28;19917;-96
2021/01/09 06:48:04;;;;;;;8.65;5.43;;;;;;;0.87;67.20;102497.94;5008690;28;20081;-96
2021/01/09 06:50:32;;;;;;;8.40;5.93;;;;;;;0.78;67.19;102494.94;5020279;28;20060;-95
2021/01/09 06:52:59;;;;;;;10.00;6.85;;;;;;;0.76;67.25;102492.25;5006236;28;20056;-96
2021/01/09 06:58:31;;;;;;;11.95;6.90;;;;;;;0.82;67.51;102502.06;5108736;27;20497;-96
2021/01/09 07:01:26;;;;;;;12.00;6.60;;;;;;;0.86;67.24;102504.03;5082335;28;20036;-96
2021/01/09 07:03:52;;;;;;;11.95;7.10;;;;;;;0.75;67.37;102500.00;5074569;28;20116;-91
2021/01/09 07:06:59;;;;;;;12.05;7.53;;;;;;;0.85;67.41;102502.22;5071243;28;20072;-93
2021/01/09 07:09:28;;;;;;;11.18;6.60;;;;;;;0.75;67.70;102502.63;5071929;28;20029;-96
2021/01/09 07:11:55;;;;;;;10.52;6.30;;;;;;;0.74;67.38;102504.31;5072096;28;20112;-96
2021/01/09 07:14:22;;;;;;;12.70;7.70;;;;;;;0.73;67.33;102515.56;5072163;28;20107;-96
2021/01/09 07:16:48;;;;;;;15.82;6.70;;;;;;;0.71;67.14;102513.72;5072725;28;20025;-96
2021/01/09 07:19:15;;;;;;;10.20;7.00;;;;;;;0.70;67.40;102511.91;5070473;28;20511;-94
2021/01/09 07:21:46;;;;;;;14.93;8.88;;;;;;;0.73;67.56;102517.31;5071315;28;20039;-94
2021/01/09 07:24:14;;;;;;;10.13;7.00;;;;;;;0.71;67.33;102518.94;5052225;28;20136;-95
2021/01/09 07:26:41;;;;;;;13.98;8.05;;;;;;;0.70;67.31;102517.13;5052094;28;20068;-95
2021/01/09 07:29:07;;;;;;;15.02;6.38;;;;;;;0.69;67.42;102520.59;5051767;28;20473;-96
2021/01/09 07:31:39;;;;;;;13.75;6.88;;;;;;;0.72;67.63;102519.00;5063431;28;20058;-96
2021/01/09 07:34:13;;;;;;;11.40;6.15;;;;;;;0.72;67.60;102520.72;5071852;28;20032;-96
2021/01/09 07:36:40;;;;;;;10.85;6.80;;;;;;;0.65;67.25;102524.78;5071180;28;20476;-96
2021/01/09 07:39:06;;;;;;;12.93;6.70;;;;;;;0.63;67.19;102522.06;5070126;28;20037;-96
2021/01/09 07:41:37;;;;;;;16.73;7.10;;;;;;;0.66;67.92;102526.56;5070886;28;20036;-95
2021/01/09 07:44:20;;;;;;;16.58;8.38;;;;;;;0.72;67.51;102529.44;5070207;28;20459;-94
2021/01/09 07:47:05;;;;;;;10.75;6.63;;;;;;;0.74;67.69;102534.75;5069394;28;20029;-91
2021/01/09 07:49:34;;;;;;;14.75;8.02;;;;;;;0.66;68.05;102526.56;5070108;28;20056;-91
2021/01/09 07:54:43;;;;;;;11.32;7.03;;;;;;;0.67;67.78;102532.66;5091209;27;20887;-93
2021/01/09 07:57:22;;;;;;;11.68;7.10;;;;;;;0.74;67.58;102535.63;5070724;28;20498;-92
2021/01/09 08:02:46;;;;;;;20.92;8.88;;;;;;;0.71;67.82;102545.03;5124601;27;1010255;-93
2021/01/09 08:05:21;;;;;;;11.68;6.72;;;;;;;0.74;67.83;102538.25;5123529;27;20059;-90
2021/01/09 08:08:02;;;;;;;17.38;7.70;;;;;;;0.77;68.04;102546.22;5137611;27;20539;-91
2021/01/09 08:10:55;;;;;;;12.13;6.47;;;;;;;0.79;67.63;102554.13;5139596;27;20027;-91
2021/01/09 08:13:59;;;;;;;14.00;7.40;;;;;;;0.86;67.58;102553.59;5130370;28;20546;-92
2021/01/09 08:19:39;;;;;;;14.00;8.52;;;;;;;0.89;67.71;102561.56;5085956;22;20049;-79
2021/01/09 08:22:06;;;;;;;13.70;7.63;;;;;;;0.90;67.96;102565.97;5018506;28;20041;-79
2021/01/09 08:24:32;;;;;;;18.10;8.40;;;;;;;0.92;67.84;102566.94;5011319;28;20034;-80
2021/01/09 08:27:00;;;;;;;15.63;7.70;;;;;;;0.96;67.88;102576.69;4995361;28;20069;-81
2021/01/09 08:29:28;;;;;;;12.45;6.97;;;;;;;1.00;68.41;102577.75;5010331;28;20473;-77
2021/01/09 08:31:56;;;;;;;14.05;7.60;;;;;;;1.01;68.06;102571.69;5009039;28;20061;-88
2021/01/09 08:34:24;;;;;;;16.35;8.93;;;;;;;1.04;68.49;102581.41;5010014;28;20092;-78
2021/01/09 08:36:54;;;;;;;19.98;10.10;;;;;;;1.11;68.23;102578.25;5009868;28;20110;-78
2021/01/09 08:39:23;;;;;;;17.83;8.25;;;;;;;1.19;68.62;102582.09;5007107;28;20033;-80
2021/01/09 08:41:54;;;;;;;19.05;8.13;;;;;;;1.24;68.74;102585.81;5011213;28;20468;-80
2021/01/09 08:44:20;;;;;;;14.88;7.78;;;;;;;1.28;68.84;102587.75;5007572;28;20482;-80
2021/01/09 08:46:46;;;;;;;18.90;10.93;;;;;;;1.34;68.46;102589.75;5010074;28;20493;-80
2021/01/09 08:49:35;;;;;;;41.75;19.50;;;;;;;1.51;68.29;102590.53;4992471;28;20069;-79
2021/01/09 08:52:05;;;;;;;24.15;13.38;;;;;;;1.52;68.81;102592.31;5007261;28;20502;-79
2021/01/09 08:54:32;;;;;;;24.08;11.25;;;;;;;1.58;69.01;102594.31;5009932;28;20041;-79
2021/01/09 08:57:01;;;;;;;14.77;9.43;;;;;;;1.69;68.91;102593.06;5010209;28;20489;-80
2021/01/09 08:59:27;;;;;;;18.55;10.32;;;;;;;1.76;69.43;102597.75;5009329;28;20121;-79
2021/01/09 09:02:00;;;;;;;16.17;9.38;;;;;;;1.93;69.58;102605.44;5009492;28;20030;-81
2021/01/09 09:04:27;;;;;;;20.33;10.45;;;;;;;2.03;69.64;102599.81;4992088;28;20026;-79
2021/01/09 09:06:59;;;;;;;27.25;11.68;;;;;;;2.20;69.92;102607.47;5008998;28;20425;-79
2021/01/09 09:09:28;;;;;;;19.33;9.77;;;;;;;2.31;70.09;102613.19;5007236;28;20104;-79
2021/01/09 09:11:54;;;;;;;22.23;10.68;;;;;;;2.40;70.13;102616.16;5007746;28;20081;-79
2021/01/09 09:14:21;;;;;;;22.52;11.07;;;;;;;2.51;70.35;102621.84;4995769;28;20026;-79
2021/01/09 09:16:58;;;;;;;24.50;12.38;;;;;;;2.72;70.60;102608.78;4996692;28;20030;-77
2021/01/09 09:19:25;;;;;;;68.50;32.85;;;;;;;2.80;70.65;102607.34;4996509;28;20073;-81
2021/01/09 09:21:59;;;;;;;28.10;13.88;;;;;;;3.00;70.38;102608.13;5001673;28;20046;-80
2021/01/09 09:30:12;;;;;;;21.05;7.40;;;;;;;3.43;70.63;102614.16;5062872;27;20399;-79
2021/01/09 09:32:39;;;;;;;;;;;;;;;3.71;70.27;102615.19;5066066;28;20133;-79
2021/01/09 09:35:26;;;;;;;12.77;5.88;;;;;;;3.75;70.05;102610.97;5068012;28;19913;-81
2021/01/09 09:37:56;;;;;;;10.93;4.65;;;;;;;3.72;69.96;102611.75;5051572;28;20116;-81
2021/01/09 09:40:28;;;;;;;16.95;4.93;;;;;;;3.82;70.30;102618.22;5055765;28;20043;-84
2021/01/09 09:43:09;;;;;;;9.25;4.57;;;;;;;3.88;69.61;102616.69;5049729;28;20041;-80
2021/01/09 09:45:36;;;;;;;8.10;3.53;;;;;;;3.94;69.45;102617.75;5062195;28;20107;-79
2021/01/09 09:48:02;;;;;;;9.68;4.25;;;;;;;3.98;70.03;102620.53;5052296;28;20040;-79
2021/01/09 09:50:28;;;;;;;7.25;4.00;;;;;;;4.02;69.35;102617.19;5067699;28;20048;-80
2021/01/09 09:53:03;;;;;;;10.07;3.90;;;;;;;4.14;69.70;102611.50;5063098;28;20034;-80
2021/01/09 09:55:29;;;;;;;9.63;3.63;;;;;;;4.08;69.75;102610.41;5063516;28;20028;-80
2021/01/09 09:58:11;;;;;;;9.20;3.95;;;;;;;4.19;69.24;102619.53;5056083;28;20470;-79
2021/01/09 10:00:42;;;;;;;5.23;2.83;;;;;;;4.12;69.06;102612.28;5051871;28;20079;-79
2021/01/09 10:03:09;;;;;;;5.38;3.53;;;;;;;4.06;69.72;102618.19;5057978;28;20393;-79
2021/01/09 10:05:35;;;;;;;6.65;2.92;;;;;;;4.08;69.28;102619.16;5057167;28;20107;-79
2021/01/09 10:08:14;;;;;;;5.93;2.63;;;;;;;4.17;69.53;102622.09;5055189;28;20439;-80
2021/01/09 10:10:42;;;;;;;5.18;3.25;;;;;;;4.11;69.12;102618.34;5058716;28;20021;-80
2021/01/09 10:13:09;;;;;;;9.95;3.45;;;;;;;4.15;69.43;102613.28;5056875;28;20033;-80
2021/01/09 10:15:35;;;;;;;9.63;3.92;;;;;;;4.24;69.16;102619.66;5057009;28;20104;-80
2021/01/09 10:18:03;;;;;;;7.60;3.85;;;;;;;4.34;69.34;102614.81;5057528;28;20495;-84
2021/01/09 10:20:30;;;;;;;48.03;20.90;;;;;;;4.44;69.41;102618.63;5058399;28;20127;-79
2021/01/09 10:22:56;;;;;;;13.60;6.75;;;;;;;4.57;68.67;102611.19;5057750;28;20025;-77
2021/01/09 10:25:22;;;;;;;12.40;5.93;;;;;;;4.66;68.44;102615.00;5054650;28;20055;-79
2021/01/09 10:27:51;;;;;;;15.68;8.15;;;;;;;4.72;68.52;102616.03;5054788;28;20445;-79
2021/01/09 10:30:18;;;;;;;10.20;5.43;;;;;;;4.82;68.33;102611.16;5053709;28;20033;-82
2021/01/09 10:32:44;;;;;;;12.00;6.25;;;;;;;4.92;68.62;102614.06;5053041;28;20033;-86
2021/01/09 10:35:11;;;;;;;12.60;5.00;;;;;;;4.99;68.37;102613.41;5055713;28;20381;-80
2021/01/09 10:37:37;;;;;;;8.75;4.40;;;;;;;5.11;67.99;102607.63;5058373;28;20029;-80
2021/01/09 10:40:03;;;;;;;10.00;4.57;;;;;;;5.20;67.77;102610.56;5053568;28;20040;-80
2021/01/09 10:42:32;;;;;;;12.98;5.10;;;;;;;5.35;67.95;102608.38;5047273;28;20029;-86
2021/01/09 10:44:58;;;;;;;11.35;4.80;;;;;;;5.42;67.30;102601.59;5044867;28;20041;-80
2021/01/09 10:47:25;;;;;;;8.70;3.30;;;;;;;5.50;67.06;102610.59;5042224;28;20555;-79
2021/01/09 10:49:51;;;;;;;6.60;3.58;;;;;;;5.64;66.63;102605.72;5047091;28;20042;-79
2021/01/09 10:52:17;;;;;;;7.70;3.08;;;;;;;5.73;66.15;102612.09;5044038;28;20033;-81
2021/01/09 10:54:44;;;;;;;9.50;2.83;;;;;;;5.88;65.95;102603.75;5044894;28;20040;-87
2021/01/09 10:57:11;;;;;;;9.43;2.60;;;;;;;5.96;65.36;102605.75;5043861;28;20053;-78
2021/01/09 10:59:39;;;;;;;9.32;2.75;;;;;;;6.03;65.30;102604.22;5042295;28;20033;-82
2021/01/09 11:02:08;;;;;;;8.48;2.53;;;;;;;6.20;64.64;102607.28;5041593;28;20407;-79
2021/01/09 11:04:34;;;;;;;8.75;2.50;;;;;;;6.25;64.59;102607.44;5041613;28;20327;-80
2021/01/09 11:07:00;;;;;;;9.23;2.65;;;;;;;6.35;63.91;102596.28;5043428;28;20033;-83
2021/01/09 11:09:27;;;;;;;4.82;2.40;;;;;;;6.49;64.03;102591.34;5046545;28;20119;-82
2021/01/09 11:11:53;;;;;;;9.40;2.65;;;;;;;6.57;63.81;102588.94;5043895;28;20037;-82
2021/01/09 11:14:19;;;;;;;5.88;2.67;;;;;;;6.60;63.47;102583.72;5038477;28;20017;-82
2021/01/09 11:16:46;;;;;;;19.38;3.58;;;;;;;6.73;63.66;102593.72;5043299;28;20380;-80
2021/01/09 11:19:12;;;;;;;8.63;3.08;;;;;;;6.78;63.41;102594.72;5045375;28;20492;-81
2021/01/09 11:21:39;;;;;;;7.90;2.65;;;;;;;6.84;63.30;102590.44;5044066;28;20110;-80
2021/01/09 11:24:06;;;;;;;15.88;3.20;;;;;;;6.97;62.73;102595.16;5043044;28;20046;-81
2021/01/09 11:26:32;;;;;;;10.50;2.70;;;;;;;6.87;62.68;102587.88;5044292;28;20082;-79
2021/01/09 11:28:59;;;;;;;10.00;2.15;;;;;;;6.92;62.80;102583.63;5044265;28;20037;-79
2021/01/09 11:31:25;;;;;;;10.57;2.55;;;;;;;6.94;62.69;102585.44;5045362;28;20071;-80
2021/01/09 11:33:52;;;;;;;10.85;2.15;;;;;;;6.92;63.31;102586.25;5042172;28;20033;-82
2021/01/09 11:36:19;;;;;;;7.72;3.17;;;;;;;7.08;62.97;102583.09;5045348;28;20042;-79
2021/01/09 11:38:46;;;;;;;12.40;3.42;;;;;;;7.18;62.46;102588.56;5049711;28;20040;-80
2021/01/09 11:41:13;;;;;;;5.18;2.28;;;;;;;7.25;62.82;102579.94;5043160;28;20037;-78
2021/01/09 11:43:42;;;;;;;4.20;2.30;;;;;;;7.37;62.03;102579.31;5038660;28;20029;-86
2021/01/09 11:46:09;;;;;;;5.78;2.47;;;;;;;7.43;62.60;102564.50;5048981;28;20124;-81
2021/01/09 11:48:36;;;;;;;7.65;2.13;;;;;;;7.48;62.72;102566.34;5054865;28;20388;-81
2021/01/09 11:51:03;;;;;;;6.72;2.25;;;;;;;7.51;62.63;102571.69;5054459;28;20021;-81
2021/01/09 11:53:29;;;;;;;5.88;2.00;;;;;;;7.54;62.31;102563.84;5054335;28;20029;-81
2021/01/09 11:55:55;;;;;;;6.03;1.83;;;;;;;7.66;62.68;102576.41;5054715;28;20029;-80